sensor_id;sensor_type;location;lat;lon;timestamp;P1;durP1;ratioP1;P2;durP2;ratioP2
61895;SDS011;47835;52.778;5.956;2022-09-09T00:01:46;3.53;;;1.65;;
61895;SDS011;47835;52.778;5.956;2022-09-09T00:04:39;2.45;;;1.17;;
61895;SDS011;47835;52.778;5.956;2022-09-09T00:07:00;2.33;;;1.50;;
61895;SDS011;47835;52.778;5.956;2022-09-09T00:09:47;2.88;;;1.10;;
61895;SDS011;47835;52.778;5.956;2022-09-09T00:17:38;4.03;;;1.63;;
61895;SDS011;47835;52.778;5.956;2022-09-09T00:20:19;2.75;;;1.40;;
61895;SDS011;47835;52.778;5.956;2022-09-09T00:28:23;6.70;;;1.38;;
61895;SDS011;47835;52.778;5.956;2022-09-09T00:30:51;3.72;;;1.55;;
61895;SDS011;47835;52.778;5.956;2022-09-09T00:33:19;4.03;;;1.45;;
61895;SDS011;47835;52.778;5.956;2022-09-09T00:35:48;3.95;;;1.52;;
61895;SDS011;47835;52.778;5.956;2022-09-09T00:38:35;3.95;;;1.55;;
61895;SDS011;47835;52.778;5.956;2022-09-09T00:43:40;4.85;;;1.35;;
61895;SDS011;47835;52.778;5.956;2022-09-09T00:49:04;3.05;;;1.42;;
61895;SDS011;47835;52.778;5.956;2022-09-09T00:51:55;3.22;;;1.65;;
61895;SDS011;47835;52.778;5.956;2022-09-09T00:54:49;3.28;;;1.23;;
61895;SDS011;47835;52.778;5.956;2022-09-09T00:57:36;3.08;;;1.60;;
61895;SDS011;47835;52.778;5.956;2022-09-09T01:03:44;5.45;;;1.60;;
61895;SDS011;47835;52.778;5.956;2022-09-09T01:06:14;2.97;;;1.40;;
61895;SDS011;47835;52.778;5.956;2022-09-09T01:11:36;3.10;;;1.40;;
61895;SDS011;47835;52.778;5.956;2022-09-09T01:14:29;2.83;;;1.30;;
61895;SDS011;47835;52.778;5.956;2022-09-09T01:16:56;4.03;;;1.27;;
61895;SDS011;47835;52.778;5.956;2022-09-09T01:19:43;3.08;;;1.27;;
61895;SDS011;47835;52.778;5.956;2022-09-09T01:22:33;2.75;;;1.40;;
61895;SDS011;47835;52.778;5.956;2022-09-09T01:28:03;3.58;;;1.60;;
61895;SDS011;47835;52.778;5.956;2022-09-09T01:30:33;4.15;;;1.42;;
61895;SDS011;47835;52.778;5.956;2022-09-09T01:33:03;2.63;;;1.63;;
61895;SDS011;47835;52.778;5.956;2022-09-09T01:35:39;3.88;;;2.20;;
61895;SDS011;47835;52.778;5.956;2022-09-09T01:38:09;3.45;;;1.50;;
61895;SDS011;47835;52.778;5.956;2022-09-09T01:40:35;2.80;;;1.70;;
61895;SDS011;47835;52.778;5.956;2022-09-09T01:43:01;4.05;;;1.50;;
61895;SDS011;47835;52.778;5.956;2022-09-09T01:45:28;3.75;;;1.40;;
61895;SDS011;47835;52.778;5.956;2022-09-09T01:47:54;2.58;;;1.52;;
61895;SDS011;47835;52.778;5.956;2022-09-09T01:50:21;2.83;;;1.33;;
61895;SDS011;47835;52.778;5.956;2022-09-09T01:52:48;2.78;;;1.27;;
61895;SDS011;47835;52.778;5.956;2022-09-09T01:55:18;3.60;;;1.60;;
61895;SDS011;47835;52.778;5.956;2022-09-09T01:58:01;3.13;;;1.58;;
61895;SDS011;47835;52.778;5.956;2022-09-09T02:00:39;3.90;;;1.33;;
61895;SDS011;47835;52.778;5.956;2022-09-09T02:03:27;4.47;;;1.30;;
61895;SDS011;47835;52.778;5.956;2022-09-09T02:05:57;3.50;;;1.33;;
61895;SDS011;47835;52.778;5.956;2022-09-09T02:08:33;2.78;;;1.65;;
61895;SDS011;47835;52.778;5.956;2022-09-09T02:11:18;2.85;;;1.15;;
61895;SDS011;47835;52.778;5.956;2022-09-09T02:13:49;2.00;;;0.98;;
61895;SDS011;47835;52.778;5.956;2022-09-09T02:16:22;3.17;;;1.00;;
61895;SDS011;47835;52.778;5.956;2022-09-09T02:21:33;4.28;;;1.00;;
61895;SDS011;47835;52.778;5.956;2022-09-09T02:24:00;1.92;;;0.88;;
61895;SDS011;47835;52.778;5.956;2022-09-09T02:26:29;3.92;;;0.85;;
61895;SDS011;47835;52.778;5.956;2022-09-09T02:28:58;2.42;;;0.70;;
61895;SDS011;47835;52.778;5.956;2022-09-09T02:31:28;2.13;;;0.98;;
61895;SDS011;47835;52.778;5.956;2022-09-09T02:33:58;1.95;;;0.60;;
61895;SDS011;47835;52.778;5.956;2022-09-09T02:36:26;3.35;;;0.70;;
61895;SDS011;47835;52.778;5.956;2022-09-09T02:38:56;2.38;;;0.80;;
61895;SDS011;47835;52.778;5.956;2022-09-09T02:41:27;2.97;;;0.73;;
61895;SDS011;47835;52.778;5.956;2022-09-09T02:43:57;1.85;;;0.50;;
61895;SDS011;47835;52.778;5.956;2022-09-09T02:49:12;2.43;;;0.77;;
61895;SDS011;47835;52.778;5.956;2022-09-09T02:51:48;1.63;;;0.75;;
61895;SDS011;47835;52.778;5.956;2022-09-09T02:56:53;1.85;;;0.47;;
61895;SDS011;47835;52.778;5.956;2022-09-09T02:59:22;2.25;;;0.60;;
61895;SDS011;47835;52.778;5.956;2022-09-09T03:01:49;1.50;;;0.60;;
61895;SDS011;47835;52.778;5.956;2022-09-09T03:04:15;3.75;;;0.73;;
61895;SDS011;47835;52.778;5.956;2022-09-09T03:06:41;2.13;;;0.60;;
61895;SDS011;47835;52.778;5.956;2022-09-09T03:09:06;3.17;;;0.70;;
61895;SDS011;47835;52.778;5.956;2022-09-09T03:11:33;1.52;;;0.77;;
61895;SDS011;47835;52.778;5.956;2022-09-09T03:13:58;4.53;;;0.57;;
61895;SDS011;47835;52.778;5.956;2022-09-09T03:16:24;1.50;;;0.60;;
61895;SDS011;47835;52.778;5.956;2022-09-09T03:18:49;1.83;;;0.70;;
61895;SDS011;47835;52.778;5.956;2022-09-09T03:21:15;2.35;;;0.70;;
61895;SDS011;47835;52.778;5.956;2022-09-09T03:23:40;2.13;;;0.60;;
61895;SDS011;47835;52.778;5.956;2022-09-09T03:26:06;2.10;;;0.88;;
61895;SDS011;47835;52.778;5.956;2022-09-09T03:28:32;1.90;;;0.77;;
61895;SDS011;47835;52.778;5.956;2022-09-09T03:30:59;2.08;;;0.77;;
61895;SDS011;47835;52.778;5.956;2022-09-09T03:33:25;3.20;;;1.20;;
61895;SDS011;47835;52.778;5.956;2022-09-09T03:35:51;2.55;;;0.90;;
61895;SDS011;47835;52.778;5.956;2022-09-09T03:38:17;2.50;;;0.93;;
61895;SDS011;47835;52.778;5.956;2022-09-09T03:40:52;2.10;;;0.88;;
61895;SDS011;47835;52.778;5.956;2022-09-09T03:43:25;1.70;;;0.90;;
61895;SDS011;47835;52.778;5.956;2022-09-09T03:45:51;2.40;;;0.98;;
61895;SDS011;47835;52.778;5.956;2022-09-09T03:48:17;2.33;;;0.80;;
61895;SDS011;47835;52.778;5.956;2022-09-09T03:50:45;2.92;;;0.82;;
61895;SDS011;47835;52.778;5.956;2022-09-09T03:53:11;4.90;;;1.00;;
61895;SDS011;47835;52.778;5.956;2022-09-09T03:55:37;3.80;;;0.93;;
61895;SDS011;47835;52.778;5.956;2022-09-09T03:58:02;2.60;;;0.95;;
61895;SDS011;47835;52.778;5.956;2022-09-09T04:00:28;3.30;;;0.90;;
61895;SDS011;47835;52.778;5.956;2022-09-09T04:02:55;1.77;;;0.90;;
61895;SDS011;47835;52.778;5.956;2022-09-09T04:05:22;1.70;;;0.82;;
61895;SDS011;47835;52.778;5.956;2022-09-09T04:07:48;1.80;;;0.82;;
61895;SDS011;47835;52.778;5.956;2022-09-09T04:10:13;1.75;;;0.80;;
61895;SDS011;47835;52.778;5.956;2022-09-09T04:12:40;3.65;;;0.90;;
61895;SDS011;47835;52.778;5.956;2022-09-09T04:15:06;1.73;;;0.95;;
61895;SDS011;47835;52.778;5.956;2022-09-09T04:17:33;2.85;;;1.35;;
61895;SDS011;47835;52.778;5.956;2022-09-09T04:19:58;2.30;;;1.23;;
61895;SDS011;47835;52.778;5.956;2022-09-09T04:22:24;2.80;;;1.00;;
61895;SDS011;47835;52.778;5.956;2022-09-09T04:24:49;4.03;;;1.10;;
61895;SDS011;47835;52.778;5.956;2022-09-09T04:27:15;2.10;;;1.17;;
61895;SDS011;47835;52.778;5.956;2022-09-09T04:29:40;3.55;;;1.73;;
61895;SDS011;47835;52.778;5.956;2022-09-09T04:32:06;3.45;;;1.35;;
61895;SDS011;47835;52.778;5.956;2022-09-09T04:34:31;2.35;;;1.05;;
61895;SDS011;47835;52.778;5.956;2022-09-09T04:36:57;3.05;;;1.25;;
61895;SDS011;47835;52.778;5.956;2022-09-09T04:39:23;4.38;;;1.50;;
61895;SDS011;47835;52.778;5.956;2022-09-09T04:41:49;3.70;;;1.42;;
61895;SDS011;47835;52.778;5.956;2022-09-09T04:44:15;2.88;;;1.00;;
61895;SDS011;47835;52.778;5.956;2022-09-09T04:46:40;2.70;;;1.27;;
61895;SDS011;47835;52.778;5.956;2022-09-09T04:49:06;4.95;;;1.30;;
61895;SDS011;47835;52.778;5.956;2022-09-09T04:51:32;2.80;;;1.42;;
61895;SDS011;47835;52.778;5.956;2022-09-09T04:53:57;4.10;;;1.20;;
61895;SDS011;47835;52.778;5.956;2022-09-09T04:56:23;2.45;;;1.05;;
61895;SDS011;47835;52.778;5.956;2022-09-09T04:58:51;3.35;;;1.33;;
61895;SDS011;47835;52.778;5.956;2022-09-09T05:01:18;3.15;;;1.35;;
61895;SDS011;47835;52.778;5.956;2022-09-09T05:03:46;3.95;;;1.35;;
61895;SDS011;47835;52.778;5.956;2022-09-09T05:06:22;3.55;;;1.45;;
61895;SDS011;47835;52.778;5.956;2022-09-09T05:08:48;3.22;;;1.55;;
61895;SDS011;47835;52.778;5.956;2022-09-09T05:11:17;3.58;;;1.90;;
61895;SDS011;47835;52.778;5.956;2022-09-09T05:13:44;3.35;;;1.80;;
61895;SDS011;47835;52.778;5.956;2022-09-09T05:16:11;3.78;;;1.90;;
61895;SDS011;47835;52.778;5.956;2022-09-09T05:18:40;5.05;;;1.77;;
61895;SDS011;47835;52.778;5.956;2022-09-09T05:21:13;5.15;;;2.00;;
61895;SDS011;47835;52.778;5.956;2022-09-09T05:23:40;4.20;;;2.03;;
61895;SDS011;47835;52.778;5.956;2022-09-09T05:26:06;3.75;;;1.88;;
61895;SDS011;47835;52.778;5.956;2022-09-09T05:28:34;29.05;;;3.28;;
61895;SDS011;47835;52.778;5.956;2022-09-09T05:31:01;8.57;;;2.22;;
61895;SDS011;47835;52.778;5.956;2022-09-09T05:33:29;7.82;;;2.80;;
61895;SDS011;47835;52.778;5.956;2022-09-09T05:35:57;4.28;;;2.78;;
61895;SDS011;47835;52.778;5.956;2022-09-09T05:38:24;7.70;;;3.40;;
61895;SDS011;47835;52.778;5.956;2022-09-09T05:40:50;16.48;;;3.88;;
61895;SDS011;47835;52.778;5.956;2022-09-09T05:43:17;12.82;;;3.88;;
61895;SDS011;47835;52.778;5.956;2022-09-09T05:45:44;7.70;;;4.25;;
61895;SDS011;47835;52.778;5.956;2022-09-09T05:48:14;8.75;;;3.85;;
61895;SDS011;47835;52.778;5.956;2022-09-09T05:50:41;5.30;;;2.53;;
61895;SDS011;47835;52.778;5.956;2022-09-09T05:53:08;4.43;;;2.90;;
61895;SDS011;47835;52.778;5.956;2022-09-09T05:55:35;4.22;;;2.38;;
61895;SDS011;47835;52.778;5.956;2022-09-09T05:58:00;5.40;;;2.78;;
61895;SDS011;47835;52.778;5.956;2022-09-09T06:00:26;5.68;;;2.38;;
61895;SDS011;47835;52.778;5.956;2022-09-09T06:02:52;6.32;;;2.13;;
61895;SDS011;47835;52.778;5.956;2022-09-09T06:05:18;4.15;;;2.03;;
61895;SDS011;47835;52.778;5.956;2022-09-09T06:07:44;3.08;;;1.85;;
61895;SDS011;47835;52.778;5.956;2022-09-09T06:10:10;7.50;;;1.90;;
61895;SDS011;47835;52.778;5.956;2022-09-09T06:12:38;3.40;;;1.92;;
61895;SDS011;47835;52.778;5.956;2022-09-09T06:15:04;4.50;;;2.28;;
61895;SDS011;47835;52.778;5.956;2022-09-09T06:17:30;8.95;;;2.20;;
61895;SDS011;47835;52.778;5.956;2022-09-09T06:19:56;5.30;;;2.53;;
61895;SDS011;47835;52.778;5.956;2022-09-09T06:22:22;6.35;;;2.17;;
61895;SDS011;47835;52.778;5.956;2022-09-09T06:24:47;6.82;;;2.50;;
61895;SDS011;47835;52.778;5.956;2022-09-09T06:27:13;4.60;;;1.50;;
61895;SDS011;47835;52.778;5.956;2022-09-09T06:29:38;7.78;;;2.22;;
61895;SDS011;47835;52.778;5.956;2022-09-09T06:32:04;3.83;;;1.80;;
61895;SDS011;47835;52.778;5.956;2022-09-09T06:34:30;5.78;;;1.80;;
61895;SDS011;47835;52.778;5.956;2022-09-09T06:36:55;4.53;;;1.80;;
61895;SDS011;47835;52.778;5.956;2022-09-09T06:39:22;4.32;;;1.85;;
61895;SDS011;47835;52.778;5.956;2022-09-09T06:41:48;4.50;;;1.95;;
61895;SDS011;47835;52.778;5.956;2022-09-09T06:44:14;3.35;;;1.70;;
61895;SDS011;47835;52.778;5.956;2022-09-09T06:46:40;6.85;;;2.08;;
61895;SDS011;47835;52.778;5.956;2022-09-09T06:49:07;7.18;;;2.13;;
61895;SDS011;47835;52.778;5.956;2022-09-09T06:51:34;3.85;;;1.80;;
61895;SDS011;47835;52.778;5.956;2022-09-09T06:54:02;3.63;;;1.63;;
61895;SDS011;47835;52.778;5.956;2022-09-09T06:56:30;5.82;;;1.63;;
61895;SDS011;47835;52.778;5.956;2022-09-09T06:58:58;4.93;;;1.83;;
61895;SDS011;47835;52.778;5.956;2022-09-09T07:01:29;3.95;;;1.60;;
61895;SDS011;47835;52.778;5.956;2022-09-09T07:03:57;4.15;;;1.20;;
61895;SDS011;47835;52.778;5.956;2022-09-09T07:06:27;6.00;;;1.58;;
61895;SDS011;47835;52.778;5.956;2022-09-09T07:08:56;5.40;;;1.50;;
61895;SDS011;47835;52.778;5.956;2022-09-09T07:11:25;4.68;;;1.90;;
61895;SDS011;47835;52.778;5.956;2022-09-09T07:13:52;3.85;;;1.52;;
61895;SDS011;47835;52.778;5.956;2022-09-09T07:16:19;7.65;;;1.17;;
61895;SDS011;47835;52.778;5.956;2022-09-09T07:18:46;3.95;;;1.30;;
61895;SDS011;47835;52.778;5.956;2022-09-09T07:21:12;2.58;;;1.60;;
61895;SDS011;47835;52.778;5.956;2022-09-09T07:23:39;4.10;;;1.70;;
61895;SDS011;47835;52.778;5.956;2022-09-09T07:26:09;2.28;;;1.00;;
61895;SDS011;47835;52.778;5.956;2022-09-09T07:28:36;3.33;;;1.15;;
61895;SDS011;47835;52.778;5.956;2022-09-09T07:31:02;4.38;;;1.00;;
61895;SDS011;47835;52.778;5.956;2022-09-09T07:33:29;4.47;;;1.15;;
61895;SDS011;47835;52.778;5.956;2022-09-09T07:36:06;6.00;;;1.20;;
61895;SDS011;47835;52.778;5.956;2022-09-09T07:38:39;8.35;;;1.25;;
61895;SDS011;47835;52.778;5.956;2022-09-09T07:41:07;6.20;;;1.48;;
61895;SDS011;47835;52.778;5.956;2022-09-09T07:43:40;5.18;;;1.17;;
61895;SDS011;47835;52.778;5.956;2022-09-09T07:46:07;4.68;;;1.30;;
61895;SDS011;47835;52.778;5.956;2022-09-09T07:48:34;4.15;;;0.95;;
61895;SDS011;47835;52.778;5.956;2022-09-09T07:51:07;4.28;;;1.00;;
61895;SDS011;47835;52.778;5.956;2022-09-09T07:53:35;6.97;;;1.30;;
61895;SDS011;47835;52.778;5.956;2022-09-09T07:56:08;5.93;;;1.60;;
61895;SDS011;47835;52.778;5.956;2022-09-09T07:58:36;5.35;;;1.40;;
61895;SDS011;47835;52.778;5.956;2022-09-09T08:01:09;4.43;;;1.20;;
61895;SDS011;47835;52.778;5.956;2022-09-09T08:03:36;5.18;;;1.10;;
61895;SDS011;47835;52.778;5.956;2022-09-09T08:06:04;4.57;;;1.27;;
61895;SDS011;47835;52.778;5.956;2022-09-09T08:08:33;2.83;;;0.90;;
61895;SDS011;47835;52.778;5.956;2022-09-09T08:11:03;6.18;;;1.27;;
61895;SDS011;47835;52.778;5.956;2022-09-09T08:13:35;3.13;;;1.25;;
61895;SDS011;47835;52.778;5.956;2022-09-09T08:16:09;5.20;;;1.40;;
61895;SDS011;47835;52.778;5.956;2022-09-09T08:18:36;3.42;;;1.15;;
61895;SDS011;47835;52.778;5.956;2022-09-09T08:21:06;6.85;;;1.40;;
61895;SDS011;47835;52.778;5.956;2022-09-09T08:23:34;6.20;;;1.40;;
61895;SDS011;47835;52.778;5.956;2022-09-09T08:26:07;4.55;;;1.35;;
61895;SDS011;47835;52.778;5.956;2022-09-09T08:28:39;6.35;;;1.98;;
61895;SDS011;47835;52.778;5.956;2022-09-09T08:31:07;4.07;;;1.20;;
61895;SDS011;47835;52.778;5.956;2022-09-09T08:33:37;4.88;;;1.50;;
61895;SDS011;47835;52.778;5.956;2022-09-09T08:36:03;2.58;;;0.93;;
61895;SDS011;47835;52.778;5.956;2022-09-09T08:38:30;5.10;;;1.05;;
61895;SDS011;47835;52.778;5.956;2022-09-09T08:40:59;5.55;;;1.55;;
61895;SDS011;47835;52.778;5.956;2022-09-09T08:43:34;3.45;;;1.00;;
61895;SDS011;47835;52.778;5.956;2022-09-09T08:46:03;5.28;;;1.40;;
61895;SDS011;47835;52.778;5.956;2022-09-09T08:48:52;2.10;;;0.63;;
61895;SDS011;47835;52.778;5.956;2022-09-09T08:51:25;4.07;;;1.00;;
61895;SDS011;47835;52.778;5.956;2022-09-09T08:53:54;4.80;;;1.20;;
61895;SDS011;47835;52.778;5.956;2022-09-09T08:56:24;5.50;;;1.00;;
61895;SDS011;47835;52.778;5.956;2022-09-09T08:58:51;2.53;;;0.77;;
61895;SDS011;47835;52.778;5.956;2022-09-09T09:04:21;4.57;;;1.25;;
61895;SDS011;47835;52.778;5.956;2022-09-09T09:09:45;3.20;;;0.90;;
61895;SDS011;47835;52.778;5.956;2022-09-09T09:12:19;5.40;;;1.33;;
61895;SDS011;47835;52.778;5.956;2022-09-09T09:14:48;3.95;;;0.80;;
61895;SDS011;47835;52.778;5.956;2022-09-09T09:17:18;3.50;;;1.02;;
61895;SDS011;47835;52.778;5.956;2022-09-09T09:19:46;2.50;;;0.98;;
61895;SDS011;47835;52.778;5.956;2022-09-09T09:22:20;4.18;;;0.85;;
61895;SDS011;47835;52.778;5.956;2022-09-09T09:25:02;2.65;;;0.77;;
61895;SDS011;47835;52.778;5.956;2022-09-09T09:27:37;5.10;;;1.00;;
61895;SDS011;47835;52.778;5.956;2022-09-09T09:30:13;3.65;;;0.90;;
61895;SDS011;47835;52.778;5.956;2022-09-09T09:32:40;4.43;;;0.80;;
61895;SDS011;47835;52.778;5.956;2022-09-09T09:35:14;4.32;;;0.90;;
61895;SDS011;47835;52.778;5.956;2022-09-09T09:37:40;3.22;;;0.90;;
61895;SDS011;47835;52.778;5.956;2022-09-09T09:40:10;6.13;;;0.90;;
61895;SDS011;47835;52.778;5.956;2022-09-09T09:45:26;4.63;;;0.77;;
61895;SDS011;47835;52.778;5.956;2022-09-09T09:48:00;5.40;;;1.02;;
61895;SDS011;47835;52.778;5.956;2022-09-09T09:50:31;4.95;;;1.13;;
61895;SDS011;47835;52.778;5.956;2022-09-09T09:52:59;5.03;;;1.05;;
61895;SDS011;47835;52.778;5.956;2022-09-09T09:55:30;3.08;;;1.13;;
61895;SDS011;47835;52.778;5.956;2022-09-09T09:58:02;3.92;;;0.90;;
61895;SDS011;47835;52.778;5.956;2022-09-09T10:00:32;3.88;;;0.93;;
61895;SDS011;47835;52.778;5.956;2022-09-09T10:03:00;4.05;;;0.98;;
61895;SDS011;47835;52.778;5.956;2022-09-09T10:05:26;3.80;;;0.98;;
61895;SDS011;47835;52.778;5.956;2022-09-09T10:08:00;2.55;;;1.10;;
61895;SDS011;47835;52.778;5.956;2022-09-09T10:10:33;5.25;;;0.90;;
61895;SDS011;47835;52.778;5.956;2022-09-09T10:13:47;5.45;;;1.00;;
61895;SDS011;47835;52.778;5.956;2022-09-09T10:19:07;7.20;;;1.20;;
61895;SDS011;47835;52.778;5.956;2022-09-09T10:21:56;5.38;;;0.70;;
61895;SDS011;47835;52.778;5.956;2022-09-09T10:24:51;3.70;;;0.98;;
61895;SDS011;47835;52.778;5.956;2022-09-09T10:32:46;3.95;;;1.10;;
61895;SDS011;47835;52.778;5.956;2022-09-09T10:35:33;4.22;;;1.42;;
61895;SDS011;47835;52.778;5.956;2022-09-09T10:38:11;8.23;;;1.05;;
61895;SDS011;47835;52.778;5.956;2022-09-09T10:49:04;3.72;;;1.00;;
61895;SDS011;47835;52.778;5.956;2022-09-09T10:51:47;4.63;;;1.10;;
61895;SDS011;47835;52.778;5.956;2022-09-09T10:54:35;4.07;;;1.10;;
61895;SDS011;47835;52.778;5.956;2022-09-09T10:57:07;4.32;;;0.88;;
61895;SDS011;47835;52.778;5.956;2022-09-09T10:59:40;11.25;;;1.40;;
61895;SDS011;47835;52.778;5.956;2022-09-09T11:04:53;8.00;;;0.90;;
61895;SDS011;47835;52.778;5.956;2022-09-09T11:10:24;3.60;;;1.10;;
61895;SDS011;47835;52.778;5.956;2022-09-09T11:13:05;4.90;;;1.10;;
61895;SDS011;47835;52.778;5.956;2022-09-09T11:15:45;3.53;;;1.00;;
61895;SDS011;47835;52.778;5.956;2022-09-09T11:18:19;5.18;;;1.27;;
61895;SDS011;47835;52.778;5.956;2022-09-09T11:23:43;2.63;;;0.90;;
61895;SDS011;47835;52.778;5.956;2022-09-09T11:26:12;4.45;;;0.70;;
61895;SDS011;47835;52.778;5.956;2022-09-09T11:37:50;2.88;;;0.90;;
61895;SDS011;47835;52.778;5.956;2022-09-09T11:40:38;4.85;;;1.20;;
61895;SDS011;47835;52.778;5.956;2022-09-09T11:43:14;2.70;;;1.05;;
61895;SDS011;47835;52.778;5.956;2022-09-09T11:45:51;4.32;;;1.20;;
61895;SDS011;47835;52.778;5.956;2022-09-09T11:48:36;3.28;;;0.90;;
61895;SDS011;47835;52.778;5.956;2022-09-09T11:51:09;3.05;;;1.23;;
61895;SDS011;47835;52.778;5.956;2022-09-09T11:54:46;4.88;;;1.00;;
61895;SDS011;47835;52.778;5.956;2022-09-09T11:56:53;3.55;;;0.90;;
61895;SDS011;47835;52.778;5.956;2022-09-09T11:59:19;3.10;;;1.05;;
61895;SDS011;47835;52.778;5.956;2022-09-09T12:01:54;2.95;;;0.77;;
61895;SDS011;47835;52.778;5.956;2022-09-09T12:09:28;6.30;;;0.82;;
61895;SDS011;47835;52.778;5.956;2022-09-09T12:14:43;10.45;;;1.60;;
61895;SDS011;47835;52.778;5.956;2022-09-09T12:17:21;2.30;;;0.90;;
61895;SDS011;47835;52.778;5.956;2022-09-09T12:19:48;3.55;;;0.75;;
61895;SDS011;47835;52.778;5.956;2022-09-09T12:25:17;5.05;;;1.00;;
61895;SDS011;47835;52.778;5.956;2022-09-09T12:28:01;11.55;;;1.50;;
61895;SDS011;47835;52.778;5.956;2022-09-09T12:30:57;4.07;;;1.55;;
61895;SDS011;47835;52.778;5.956;2022-09-09T12:33:39;4.70;;;1.17;;
61895;SDS011;47835;52.778;5.956;2022-09-09T12:36:11;3.05;;;0.77;;
61895;SDS011;47835;52.778;5.956;2022-09-09T12:38:40;2.83;;;0.70;;
61895;SDS011;47835;52.778;5.956;2022-09-09T12:41:17;5.45;;;0.90;;
61895;SDS011;47835;52.778;5.956;2022-09-09T12:43:45;2.40;;;0.70;;
61895;SDS011;47835;52.778;5.956;2022-09-09T12:46:15;3.55;;;1.02;;
61895;SDS011;47835;52.778;5.956;2022-09-09T12:48:51;5.13;;;1.00;;
61895;SDS011;47835;52.778;5.956;2022-09-09T12:51:31;3.35;;;0.90;;
61895;SDS011;47835;52.778;5.956;2022-09-09T12:53:58;3.42;;;0.75;;
61895;SDS011;47835;52.778;5.956;2022-09-09T12:56:25;4.22;;;0.90;;
61895;SDS011;47835;52.778;5.956;2022-09-09T12:58:58;2.33;;;0.60;;
61895;SDS011;47835;52.778;5.956;2022-09-09T13:03:53;3.33;;;0.60;;
61895;SDS011;47835;52.778;5.956;2022-09-09T13:06:21;3.38;;;0.93;;
61895;SDS011;47835;52.778;5.956;2022-09-09T13:08:52;3.15;;;1.08;;
61895;SDS011;47835;52.778;5.956;2022-09-09T13:11:26;3.25;;;1.23;;
61895;SDS011;47835;52.778;5.956;2022-09-09T13:14:01;4.30;;;0.70;;
61895;SDS011;47835;52.778;5.956;2022-09-09T13:16:31;1.98;;;0.82;;
61895;SDS011;47835;52.778;5.956;2022-09-09T13:19:02;2.80;;;0.98;;
61895;SDS011;47835;52.778;5.956;2022-09-09T13:21:34;3.67;;;0.90;;
61895;SDS011;47835;52.778;5.956;2022-09-09T13:26:56;3.05;;;0.95;;
61895;SDS011;47835;52.778;5.956;2022-09-09T13:29:25;2.63;;;0.70;;
61895;SDS011;47835;52.778;5.956;2022-09-09T13:31:50;3.28;;;0.85;;
61895;SDS011;47835;52.778;5.956;2022-09-09T13:34:33;2.17;;;0.63;;
61895;SDS011;47835;52.778;5.956;2022-09-09T13:37:04;4.43;;;0.70;;
61895;SDS011;47835;52.778;5.956;2022-09-09T13:39:35;2.50;;;0.50;;
61895;SDS011;47835;52.778;5.956;2022-09-09T13:42:02;2.60;;;0.90;;
61895;SDS011;47835;52.778;5.956;2022-09-09T13:44:30;2.53;;;0.80;;
61895;SDS011;47835;52.778;5.956;2022-09-09T13:49:28;1.73;;;0.90;;
61895;SDS011;47835;52.778;5.956;2022-09-09T13:52:05;3.25;;;0.90;;
61895;SDS011;47835;52.778;5.956;2022-09-09T13:54:32;5.13;;;0.80;;
61895;SDS011;47835;52.778;5.956;2022-09-09T13:56:58;5.28;;;1.10;;
61895;SDS011;47835;52.778;5.956;2022-09-09T13:59:24;2.78;;;0.82;;
61895;SDS011;47835;52.778;5.956;2022-09-09T14:01:50;3.75;;;0.90;;
61895;SDS011;47835;52.778;5.956;2022-09-09T14:04:17;2.20;;;0.50;;
61895;SDS011;47835;52.778;5.956;2022-09-09T14:06:43;3.10;;;0.95;;
61895;SDS011;47835;52.778;5.956;2022-09-09T14:09:13;2.28;;;0.70;;
61895;SDS011;47835;52.778;5.956;2022-09-09T14:11:40;5.13;;;0.77;;
61895;SDS011;47835;52.778;5.956;2022-09-09T14:14:06;2.60;;;0.80;;
61895;SDS011;47835;52.778;5.956;2022-09-09T14:16:31;1.23;;;0.50;;
61895;SDS011;47835;52.778;5.956;2022-09-09T14:18:58;2.17;;;0.65;;
61895;SDS011;47835;52.778;5.956;2022-09-09T14:21:24;5.93;;;1.15;;
61895;SDS011;47835;52.778;5.956;2022-09-09T14:23:50;2.30;;;0.73;;
61895;SDS011;47835;52.778;5.956;2022-09-09T14:26:17;2.05;;;0.93;;
61895;SDS011;47835;52.778;5.956;2022-09-09T14:28:45;3.10;;;1.13;;
61895;SDS011;47835;52.778;5.956;2022-09-09T14:31:11;2.15;;;0.60;;
61895;SDS011;47835;52.778;5.956;2022-09-09T14:33:38;2.53;;;0.60;;
61895;SDS011;47835;52.778;5.956;2022-09-09T14:36:04;1.85;;;0.70;;
61895;SDS011;47835;52.778;5.956;2022-09-09T14:38:31;2.40;;;0.63;;
61895;SDS011;47835;52.778;5.956;2022-09-09T14:40:58;3.50;;;0.95;;
61895;SDS011;47835;52.778;5.956;2022-09-09T14:43:24;2.42;;;0.63;;
61895;SDS011;47835;52.778;5.956;2022-09-09T14:45:51;2.67;;;0.60;;
61895;SDS011;47835;52.778;5.956;2022-09-09T14:48:17;2.50;;;0.68;;
61895;SDS011;47835;52.778;5.956;2022-09-09T14:50:43;1.42;;;0.55;;
61895;SDS011;47835;52.778;5.956;2022-09-09T14:53:09;2.08;;;0.50;;
61895;SDS011;47835;52.778;5.956;2022-09-09T14:55:35;2.00;;;0.50;;
61895;SDS011;47835;52.778;5.956;2022-09-09T14:58:01;2.00;;;0.65;;
61895;SDS011;47835;52.778;5.956;2022-09-09T15:00:27;2.17;;;0.80;;
61895;SDS011;47835;52.778;5.956;2022-09-09T15:02:53;3.10;;;0.88;;
61895;SDS011;47835;52.778;5.956;2022-09-09T15:05:19;5.20;;;1.02;;
61895;SDS011;47835;52.778;5.956;2022-09-09T15:07:45;3.20;;;0.95;;
61895;SDS011;47835;52.778;5.956;2022-09-09T15:10:10;4.13;;;0.70;;
61895;SDS011;47835;52.778;5.956;2022-09-09T15:12:36;3.97;;;1.35;;
61895;SDS011;47835;52.778;5.956;2022-09-09T15:15:03;5.25;;;1.10;;
61895;SDS011;47835;52.778;5.956;2022-09-09T15:17:29;7.55;;;1.15;;
61895;SDS011;47835;52.778;5.956;2022-09-09T15:19:55;6.20;;;0.85;;
61895;SDS011;47835;52.778;5.956;2022-09-09T15:22:21;5.10;;;0.93;;
61895;SDS011;47835;52.778;5.956;2022-09-09T15:24:46;4.50;;;0.85;;
61895;SDS011;47835;52.778;5.956;2022-09-09T15:27:12;5.90;;;1.65;;
61895;SDS011;47835;52.778;5.956;2022-09-09T15:29:39;3.40;;;0.93;;
61895;SDS011;47835;52.778;5.956;2022-09-09T15:32:06;2.90;;;1.20;;
61895;SDS011;47835;52.778;5.956;2022-09-09T15:34:32;5.35;;;1.52;;
61895;SDS011;47835;52.778;5.956;2022-09-09T15:36:57;4.47;;;1.13;;
61895;SDS011;47835;52.778;5.956;2022-09-09T15:39:24;2.92;;;1.33;;
61895;SDS011;47835;52.778;5.956;2022-09-09T15:41:50;3.67;;;1.35;;
61895;SDS011;47835;52.778;5.956;2022-09-09T15:44:16;3.70;;;1.30;;
61895;SDS011;47835;52.778;5.956;2022-09-09T15:46:50;5.55;;;1.08;;
61895;SDS011;47835;52.778;5.956;2022-09-09T15:49:25;2.47;;;1.20;;
61895;SDS011;47835;52.778;5.956;2022-09-09T15:51:55;2.03;;;1.05;;
61895;SDS011;47835;52.778;5.956;2022-09-09T15:54:22;2.15;;;1.10;;
61895;SDS011;47835;52.778;5.956;2022-09-09T15:56:55;3.00;;;1.20;;
61895;SDS011;47835;52.778;5.956;2022-09-09T15:59:26;2.72;;;1.08;;
61895;SDS011;47835;52.778;5.956;2022-09-09T16:01:53;3.28;;;1.02;;
61895;SDS011;47835;52.778;5.956;2022-09-09T16:04:20;2.97;;;1.00;;
61895;SDS011;47835;52.778;5.956;2022-09-09T16:06:53;3.03;;;0.80;;
61895;SDS011;47835;52.778;5.956;2022-09-09T16:09:29;5.65;;;1.38;;
61895;SDS011;47835;52.778;5.956;2022-09-09T16:11:57;4.38;;;1.20;;
61895;SDS011;47835;52.778;5.956;2022-09-09T16:14:25;6.15;;;1.40;;
61895;SDS011;47835;52.778;5.956;2022-09-09T16:16:52;2.13;;;1.00;;
61895;SDS011;47835;52.778;5.956;2022-09-09T16:19:18;3.15;;;1.02;;
61895;SDS011;47835;52.778;5.956;2022-09-09T16:21:48;1.95;;;0.85;;
61895;SDS011;47835;52.778;5.956;2022-09-09T16:24:15;3.75;;;1.05;;
61895;SDS011;47835;52.778;5.956;2022-09-09T16:26:45;2.95;;;1.10;;
61895;SDS011;47835;52.778;5.956;2022-09-09T16:29:13;2.75;;;1.27;;
61895;SDS011;47835;52.778;5.956;2022-09-09T16:31:39;2.65;;;1.20;;
61895;SDS011;47835;52.778;5.956;2022-09-09T16:34:06;2.33;;;1.10;;
61895;SDS011;47835;52.778;5.956;2022-09-09T16:36:33;4.45;;;1.00;;
61895;SDS011;47835;52.778;5.956;2022-09-09T16:39:01;3.37;;;1.10;;
61895;SDS011;47835;52.778;5.956;2022-09-09T16:41:30;3.15;;;1.10;;